Time;durP1;ratioP1;P1;durP2;ratioP2;P2;SDS_P1;SDS_P2;PMS_P1;PMS_P2;Temp;Humidity;BMP_temperature;BMP_pressure;BME280_temperature;BME280_humidity;BME280_pressure;Samples;Min_cycle;Max_cycle;Signal;HPM_P1;HPM_P2
2021/10/09 00:01:23;;;;;;;42.65;29.13;;;;;;;9.43;97.69;103127.38;5052118;28;20096;-55
2021/10/09 00:03:50;;;;;;;41.53;28.48;;;;;;;9.43;98.11;103126.50;5051865;28;20081;-51
2021/10/09 00:06:15;;;;;;;47.03;29.33;;;;;;;9.40;97.97;103130.03;5051956;28;20036;-55
2021/10/09 00:08:41;;;;;;;43.83;28.25;;;;;;;9.41;98.24;103121.22;5052107;28;20021;-53
2021/10/09 00:11:14;;;;;;;45.95;28.83;;;;;;;9.40;98.37;103124.75;5051270;28;20051;-54
2021/10/09 00:13:39;;;;;;;44.95;29.00;;;;;;;9.40;98.49;103126.50;5041857;28;20116;-55
2021/10/09 00:16:04;;;;;;;42.28;28.83;;;;;;;9.42;98.32;103122.09;5031554;28;20455;-55
2021/10/09 00:18:29;;;;;;;49.30;29.77;;;;;;;9.37;97.97;103122.09;5048235;28;20050;-54
2021/10/09 00:20:55;;;;;;;51.88;30.30;;;;;;;9.40;98.64;103127.41;5051480;28;20495;-54
2021/10/09 00:23:20;;;;;;;49.35;29.75;;;;;;;9.37;98.16;103119.47;5051849;28;20069;-53
2021/10/09 00:25:46;;;;;;;48.53;30.05;;;;;;;9.35;98.02;103118.59;5051176;28;20112;-56
2021/10/09 00:28:11;;;;;;;46.17;28.70;;;;;;;9.32;98.28;103122.13;5051625;28;20391;-54
2021/10/09 00:30:36;;;;;;;43.92;28.48;;;;;;;9.34;98.08;103127.41;5049433;28;20037;-55
2021/10/09 00:33:01;;;;;;;48.00;29.52;;;;;;;9.33;98.34;103123.91;5051906;28;20140;-55
2021/10/09 00:35:27;;;;;;;48.88;29.90;;;;;;;9.32;98.44;103127.41;5051252;28;20104;-52
2021/10/09 00:37:52;;;;;;;50.05;29.35;;;;;;;9.30;98.43;103123.03;5051579;28;20047;-57
2021/10/09 00:40:17;;;;;;;45.45;29.85;;;;;;;9.33;98.08;103125.66;5051386;28;20080;-54
2021/10/09 00:42:43;;;;;;;47.28;28.83;;;;;;;9.30;98.57;103121.25;5051243;28;20048;-55
2021/10/09 00:45:08;;;;;;;49.70;31.33;;;;;;;9.26;98.73;103121.25;5050747;28;20093;-54
2021/10/09 00:47:33;;;;;;;48.35;29.95;;;;;;;9.22;98.53;103123.03;5051305;28;20021;-55
2021/10/09 00:49:59;;;;;;;50.15;31.83;;;;;;;9.21;98.52;103123.91;5051369;28;20040;-56
2021/10/09 00:52:25;;;;;;;50.00;32.03;;;;;;;9.21;98.86;103117.72;5050784;28;20040;-55
2021/10/09 00:54:51;;;;;;;53.78;31.88;;;;;;;9.21;98.87;103123.03;5050549;28;20325;-54
2021/10/09 00:57:21;;;;;;;51.20;30.33;;;;;;;9.20;98.65;103116.88;5051183;28;20112;-52
2021/10/09 00:59:49;;;;;;;46.78;31.20;;;;;;;9.20;99.11;103124.81;5051392;28;20021;-50
2021/10/09 01:02:16;;;;;;;51.85;30.83;;;;;;;9.20;99.05;103122.16;5050575;28;20357;-53
2021/10/09 01:04:41;;;;;;;50.17;30.92;;;;;;;9.17;99.27;103116.88;5050056;28;20481;-55
2021/10/09 01:07:06;;;;;;;47.25;30.50;;;;;;;9.16;99.11;103115.13;5050823;28;20074;-55
2021/10/09 01:09:32;;;;;;;52.10;32.53;;;;;;;9.14;99.02;103112.50;5051148;28;20048;-55
2021/10/09 01:11:59;;;;;;;56.75;33.20;;;;;;;9.13;99.16;103110.72;5050967;28;20021;-53
2021/10/09 01:14:24;;;;;;;53.17;32.40;;;;;;;9.13;99.32;103107.19;5050584;28;20029;-51
2021/10/09 01:16:50;;;;;;;55.58;32.65;;;;;;;9.10;98.99;103113.34;5050435;28;20029;-53
2021/10/09 01:19:15;;;;;;;52.40;31.17;;;;;;;9.10;98.92;103107.19;5047921;28;20535;-55
2021/10/09 01:21:46;;;;;;;49.47;31.80;;;;;;;9.05;98.77;103103.69;5030987;28;20120;-51
2021/10/09 01:24:13;;;;;;;51.83;29.95;;;;;;;9.01;98.96;103105.44;5039367;28;20039;-56
2021/10/09 01:26:39;;;;;;;57.40;33.25;;;;;;;8.98;99.29;103101.06;5050694;28;20116;-50
2021/10/09 01:29:06;;;;;;;51.05;31.60;;;;;;;9.00;99.38;103096.66;5051287;28;20183;-60
2021/10/09 01:31:32;;;;;;;51.53;31.27;;;;;;;9.02;99.72;103096.66;5051094;28;20031;-53
2021/10/09 01:33:57;;;;;;;56.03;32.75;;;;;;;9.00;99.84;103096.66;5050527;28;20108;-55
2021/10/09 01:36:28;;;;;;;57.20;32.03;;;;;;;8.97;99.40;103093.13;5050369;28;20033;-53
2021/10/09 01:38:53;;;;;;;52.28;31.17;;;;;;;8.97;99.68;103096.66;5049677;28;20025;-55
2021/10/09 01:41:19;;;;;;;59.75;33.25;;;;;;;8.97;99.40;103094.00;5050350;28;20091;-60
2021/10/09 01:43:45;;;;;;;53.45;32.03;;;;;;;8.93;99.90;103094.03;5050016;28;20445;-51
2021/10/09 01:46:10;;;;;;;55.58;32.38;;;;;;;8.90;99.66;103088.72;5050000;28;20444;-55
2021/10/09 01:48:38;;;;;;;59.88;34.42;;;;;;;8.92;99.95;103090.50;5050083;28;20040;-55
2021/10/09 01:51:06;;;;;;;59.70;33.65;;;;;;;8.91;100.00;103083.44;5050614;28;20445;-54
2021/10/09 01:53:32;;;;;;;58.03;32.55;;;;;;;8.89;99.88;103089.59;5050282;28;20040;-53
2021/10/09 01:55:58;;;;;;;60.22;33.50;;;;;;;8.84;99.88;103087.84;5050272;28;20029;-55
2021/10/09 01:58:24;;;;;;;55.90;33.83;;;;;;;8.84;99.92;103093.13;5049417;28;20433;-54
2021/10/09 02:00:49;;;;;;;58.67;31.48;;;;;;;8.82;100.00;103091.38;5049924;28;20036;-54
2021/10/09 02:03:20;;;;;;;54.80;31.48;;;;;;;8.77;100.00;103080.84;5049745;28;20029;-49
2021/10/09 02:05:46;;;;;;;59.58;32.22;;;;;;;8.72;99.64;103090.53;5041213;28;20208;-53
2021/10/09 02:08:12;;;;;;;51.97;31.48;;;;;;;8.69;99.90;103083.47;5047136;28;20364;-55
2021/10/09 02:13:27;;;;;;;54.40;31.25;;;;;;;8.64;99.54;103093.16;5050330;28;20087;-54
2021/10/09 02:18:45;;;;;;;60.80;32.55;;;;;;;8.57;99.80;103078.22;5049007;28;20063;-53
2021/10/09 02:26:39;;;;;;;55.83;32.58;;;;;;;8.47;99.68;103073.81;5049443;28;20048;-53
2021/10/09 02:29:05;;;;;;;55.38;31.40;;;;;;;8.44;99.78;103074.66;5050022;28;20036;-54
2021/10/09 02:31:30;;;;;;;51.90;30.60;;;;;;;8.43;99.55;103072.91;5049496;28;20029;-51
2021/10/09 02:33:56;;;;;;;53.05;30.92;;;;;;;8.42;99.57;103079.03;5049820;28;20400;-55
2021/10/09 02:36:21;;;;;;;49.33;29.40;;;;;;;8.40;99.41;103080.84;5052568;28;20395;-54
2021/10/09 02:38:46;;;;;;;52.17;30.92;;;;;;;8.36;99.78;103082.59;5052310;28;20108;-60
2021/10/09 02:41:12;;;;;;;58.13;31.20;;;;;;;8.33;98.83;103079.91;5052241;28;20075;-56
2021/10/09 02:43:38;;;;;;;61.92;31.77;;;;;;;8.30;99.43;103079.94;5052703;28;20021;-54
2021/10/09 02:46:04;;;;;;;55.13;31.48;;;;;;;8.30;99.87;103077.28;5053094;28;20079;-55
2021/10/09 02:48:29;;;;;;;58.53;31.17;;;;;;;8.31;99.97;103086.97;5052588;28;20101;-55
2021/10/09 02:50:54;;;;;;;57.88;32.90;;;;;;;8.29;99.78;103072.03;5051714;28;20116;-59
2021/10/09 02:53:20;;;;;;;52.88;30.13;;;;;;;8.27;100.00;103079.03;5052125;28;20033;-51
2021/10/09 02:55:45;;;;;;;52.03;30.10;;;;;;;8.24;99.64;103071.13;5052321;28;20033;-56
2021/10/09 02:58:10;;;;;;;63.67;33.22;;;;;;;8.25;100.00;103072.88;5052606;28;20057;-53
2021/10/09 03:00:36;;;;;;;68.05;34.10;;;;;;;8.25;100.00;103064.94;5052482;28;20112;-54
2021/10/09 03:03:01;;;;;;;65.43;33.60;;;;;;;8.24;100.00;103066.72;5052110;28;20068;-55
2021/10/09 03:05:26;;;;;;;64.00;35.20;;;;;;;8.25;100.00;103076.41;5051717;28;20040;-53
2021/10/09 03:07:52;;;;;;;62.95;33.25;;;;;;;8.23;100.00;103069.38;5053415;28;20029;-53
2021/10/09 03:10:17;;;;;;;64.78;34.30;;;;;;;8.22;100.00;103067.59;5052799;28;20016;-51
2021/10/09 03:12:43;;;;;;;69.47;36.25;;;;;;;8.28;100.00;103068.47;5052261;28;20031;-53
2021/10/09 03:15:10;;;;;;;66.68;35.03;;;;;;;8.31;100.00;103067.59;5052095;28;20354;-53
2021/10/09 03:17:36;;;;;;;69.90;35.50;;;;;;;8.30;100.00;103073.75;5052699;28;20020;-58
2021/10/09 03:20:02;;;;;;;75.45;35.92;;;;;;;8.29;100.00;103069.38;5052438;28;20066;-53
2021/10/09 03:22:28;;;;;;;75.30;38.13;;;;;;;8.28;100.00;103060.56;5052466;28;20132;-53
2021/10/09 03:24:53;;;;;;;78.32;36.85;;;;;;;8.29;100.00;103072.88;5052209;28;20021;-52
2021/10/09 03:27:18;;;;;;;71.45;35.25;;;;;;;8.30;100.00;103069.38;5052368;28;20036;-52
2021/10/09 03:29:44;;;;;;;69.68;36.25;;;;;;;8.31;100.00;103063.22;5052470;28;20399;-57
2021/10/09 03:32:09;;;;;;;65.70;35.45;;;;;;;8.32;100.00;103062.31;5051826;28;20523;-55
2021/10/09 03:34:35;;;;;;;70.45;34.95;;;;;;;8.29;100.00;103062.31;5051710;28;20146;-56
2021/10/09 03:37:02;;;;;;;65.85;36.00;;;;;;;8.31;100.00;103063.22;5052044;28;20122;-58
2021/10/09 03:39:28;;;;;;;68.63;34.38;;;;;;;8.35;100.00;103067.63;5052461;28;20116;-55
2021/10/09 03:41:59;;;;;;;68.55;34.60;;;;;;;8.32;100.00;103056.16;5051837;28;20095;-54
2021/10/09 03:44:25;;;;;;;72.25;34.97;;;;;;;8.26;100.00;103066.72;5051345;28;20043;-58
2021/10/09 03:47:07;;;;;;;74.82;36.50;;;;;;;8.25;100.00;103063.22;5051076;28;20108;-55
2021/10/09 03:54:41;;;;;;;63.92;33.38;;;;;;;8.16;100.00;103063.22;5051491;28;20040;-55
2021/10/09 03:57:06;;;;;;;64.88;32.45;;;;;;;8.13;100.00;103065.81;5051039;28;20037;-52
2021/10/09 03:59:32;;;;;;;70.32;34.20;;;;;;;8.13;100.00;103071.09;5051450;28;20048;-57
2021/10/09 04:01:57;;;;;;;66.03;34.53;;;;;;;8.13;100.00;103066.72;5050876;28;20035;-50
2021/10/09 04:04:23;;;;;;;67.45;34.63;;;;;;;8.11;100.00;103065.84;5051474;28;20334;-59
2021/10/09 04:06:48;;;;;;;71.22;36.88;;;;;;;8.10;100.00;103064.06;5051320;28;20093;-55
2021/10/09 04:09:14;;;;;;;77.57;37.33;;;;;;;8.09;100.00;103059.66;5050394;28;20037;-53
2021/10/09 04:11:39;;;;;;;65.95;34.67;;;;;;;8.04;100.00;103067.59;5051661;28;20040;-53
2021/10/09 04:14:04;;;;;;;71.47;35.30;;;;;;;7.97;100.00;103065.81;5051711;28;20044;-54
2021/10/09 04:16:30;;;;;;;75.57;34.95;;;;;;;7.94;100.00;103068.44;5050860;28;20493;-55
2021/10/09 04:18:55;;;;;;;75.75;36.20;;;;;;;7.93;100.00;103073.69;5051865;28;20040;-56
2021/10/09 04:21:20;;;;;;;71.53;34.45;;;;;;;7.92;100.00;103059.66;5051803;28;20027;-55
2021/10/09 04:23:45;;;;;;;66.15;33.65;;;;;;;7.88;100.00;103068.44;5051238;28;20163;-57
2021/10/09 04:26:11;;;;;;;69.63;34.28;;;;;;;7.86;100.00;103057.00;5051004;28;20025;-55
2021/10/09 04:28:36;;;;;;;69.43;33.72;;;;;;;7.84;100.00;103064.91;5051040;28;20452;-54
2021/10/09 04:31:02;;;;;;;82.30;38.60;;;;;;;7.85;100.00;103061.41;5051313;28;20021;-56
2021/10/09 04:33:29;;;;;;;78.25;37.10;;;;;;;7.86;100.00;103065.81;5050435;28;20037;-56
2021/10/09 04:35:55;;;;;;;71.47;35.60;;;;;;;7.88;100.00;103069.31;5050695;28;20017;-57
2021/10/09 04:38:20;;;;;;;71.72;34.90;;;;;;;7.85;100.00;103066.66;5050104;28;20681;-56
2021/10/09 04:40:45;;;;;;;72.10;34.40;;;;;;;7.82;100.00;103056.09;5051142;28;20053;-54
2021/10/09 04:43:11;;;;;;;69.22;34.53;;;;;;;7.81;100.00;103056.09;5051486;28;20064;-59
2021/10/09 04:45:36;;;;;;;81.63;38.85;;;;;;;7.85;100.00;103057.84;5051206;28;20115;-54
2021/10/09 04:48:03;;;;;;;75.60;35.40;;;;;;;7.87;100.00;103061.41;5051234;28;20044;-55
2021/10/09 04:50:28;;;;;;;70.75;36.65;;;;;;;7.84;100.00;103051.72;5051076;28;20556;-58
2021/10/09 04:52:53;;;;;;;80.47;36.85;;;;;;;7.81;100.00;103056.09;5051207;28;20480;-52
2021/10/09 04:55:19;;;;;;;81.20;37.55;;;;;;;7.81;100.00;103050.81;5051055;28;20112;-54
2021/10/09 04:57:44;;;;;;;79.70;37.25;;;;;;;7.80;100.00;103057.88;5050218;28;20051;-51
2021/10/09 05:00:10;;;;;;;76.15;36.25;;;;;;;7.79;100.00;103055.22;5050376;28;20341;-51
2021/10/09 05:02:35;;;;;;;71.35;36.67;;;;;;;7.76;100.00;103053.44;5050902;28;20044;-55
2021/10/09 05:05:00;;;;;;;69.20;34.75;;;;;;;7.71;100.00;103049.91;5050663;28;20029;-54
2021/10/09 05:07:26;;;;;;;76.32;35.63;;;;;;;7.70;100.00;103046.41;5050354;28;20488;-52
2021/10/09 05:09:51;;;;;;;77.70;36.78;;;;;;;7.68;100.00;103050.78;5049057;28;20107;-53
2021/10/09 05:12:17;;;;;;;81.30;37.15;;;;;;;7.69;100.00;103052.53;5050299;28;20025;-55
2021/10/09 05:14:42;;;;;;;73.50;34.78;;;;;;;7.65;100.00;103045.50;5050204;28;20112;-52
2021/10/09 05:17:08;;;;;;;67.85;32.55;;;;;;;7.64;100.00;103051.66;5041489;28;20021;-52
2021/10/09 05:19:33;;;;;;;75.45;35.58;;;;;;;7.60;100.00;103041.13;5042401;28;20036;-55
2021/10/09 05:21:59;;;;;;;72.07;34.40;;;;;;;7.58;100.00;103041.09;5035985;28;20025;-54
2021/10/09 05:24:24;;;;;;;77.22;36.15;;;;;;;7.59;100.00;103049.91;5049310;28;20033;-53
2021/10/09 05:26:49;;;;;;;70.50;35.03;;;;;;;7.56;100.00;103045.50;5050641;28;20123;-55
2021/10/09 05:29:17;;;;;;;70.28;35.22;;;;;;;7.57;100.00;103052.53;5050410;28;20025;-53
2021/10/09 05:31:42;;;;;;;68.95;34.15;;;;;;;7.57;100.00;103051.63;5050424;28;20094;-53
2021/10/09 05:34:08;;;;;;;82.40;36.92;;;;;;;7.56;100.00;103045.50;5050893;28;20029;-53
2021/10/09 05:36:34;;;;;;;70.45;34.72;;;;;;;7.55;100.00;103057.78;5050807;28;20031;-53
2021/10/09 05:38:59;;;;;;;76.18;35.50;;;;;;;7.54;100.00;103053.41;5050788;28;20032;-55
2021/10/09 05:41:24;;;;;;;74.03;35.47;;;;;;;7.54;100.00;103065.69;5065126;28;20040;-60
2021/10/09 05:43:50;;;;;;;83.65;36.88;;;;;;;7.53;100.00;103066.56;5049620;28;20029;-57
2021/10/09 05:46:16;;;;;;;75.22;35.13;;;;;;;7.53;100.00;103066.56;5033308;28;20060;-52
2021/10/09 05:48:42;;;;;;;78.45;37.80;;;;;;;7.51;100.00;103056.00;5030955;28;20025;-56
2021/10/09 05:51:14;;;;;;;78.80;37.38;;;;;;;7.51;100.00;103060.41;5038978;28;20352;-54
2021/10/09 05:54:06;;;;;;;75.45;34.83;;;;;;;7.50;100.00;103067.41;5046746;28;20033;-57
2021/10/09 06:02:09;;;;;;;77.78;35.97;;;;;;;7.44;100.00;103055.97;5037297;28;20039;-58
2021/10/09 06:50:53;;;;;;;71.63;34.17;;;;;;;7.85;100.00;103103.59;4972350;28;20053;-55
2021/10/09 06:59:29;;;;;;;77.47;36.67;;;;;;;7.99;100.00;103118.56;4985904;28;20045;-60
2021/10/09 07:01:44;;;;;;;67.40;34.38;;;;;;;8.13;100.00;103121.25;4992711;28;20042;-53
2021/10/09 07:04:10;;;;;;;73.88;36.42;;;;;;;8.16;100.00;103124.78;5036154;28;20033;-54
2021/10/09 07:06:35;;;;;;;70.03;35.95;;;;;;;8.23;100.00;103123.03;5053200;28;20033;-54
2021/10/09 07:09:00;;;;;;;66.43;33.95;;;;;;;8.29;100.00;103127.44;5046406;28;20029;-54
2021/10/09 07:11:26;;;;;;;73.20;35.35;;;;;;;8.37;100.00;103123.91;5033446;28;20074;-53
2021/10/09 07:13:51;;;;;;;62.00;33.80;;;;;;;8.41;100.00;103119.53;5033229;28;20026;-59
2021/10/09 07:16:16;;;;;;;67.88;37.22;;;;;;;8.50;100.00;103119.59;5037833;28;20112;-57
2021/10/09 07:18:42;;;;;;;64.75;34.88;;;;;;;8.55;100.00;103121.34;5048608;28;20026;-57
2021/10/09 07:21:07;;;;;;;68.45;35.92;;;;;;;8.60;100.00;103124.88;5035845;28;20108;-61
2021/10/09 07:23:32;;;;;;;64.00;33.13;;;;;;;8.67;100.00;103121.31;5052010;28;20112;-55
2021/10/09 07:25:58;;;;;;;58.33;32.88;;;;;;;8.68;100.00;103129.28;5053403;28;20101;-53
2021/10/09 07:28:23;;;;;;;62.42;32.60;;;;;;;8.78;100.00;103131.91;5052463;28;20049;-58
2021/10/09 07:30:48;;;;;;;57.90;32.58;;;;;;;8.82;100.00;103134.56;5051628;28;20534;-58
2021/10/09 07:33:14;;;;;;;58.85;32.95;;;;;;;8.87;100.00;103138.94;5052873;28;20025;-58
2021/10/09 07:35:39;;;;;;;63.97;34.53;;;;;;;8.99;100.00;103141.56;5053460;28;20076;-61
2021/10/09 07:38:04;;;;;;;57.70;32.95;;;;;;;9.01;100.00;103132.78;5052818;28;20554;-56
2021/10/09 07:40:30;;;;;;;59.50;32.92;;;;;;;9.07;99.78;103134.53;5045693;28;20034;-55
2021/10/09 07:42:55;;;;;;;58.17;31.15;;;;;;;9.17;99.99;103141.53;5033038;28;20029;-57
2021/10/09 07:45:20;;;;;;;59.75;32.90;;;;;;;9.22;99.64;103133.63;5048938;28;20033;-53
2021/10/09 07:47:46;;;;;;;55.13;31.70;;;;;;;9.27;100.00;103137.13;5044828;28;20047;-55
2021/10/09 07:50:12;;;;;;;57.42;31.75;;;;;;;9.34;99.78;103138.00;5052364;28;20104;-56
2021/10/09 07:52:38;;;;;;;52.03;31.63;;;;;;;9.39;99.41;103138.00;5052668;28;20025;-55
2021/10/09 07:55:05;;;;;;;59.97;32.35;;;;;;;9.44;99.22;103138.84;5052293;28;20043;-54
2021/10/09 07:57:31;;;;;;;56.20;32.13;;;;;;;9.51;99.36;103141.47;5052372;28;20083;-56
2021/10/09 07:59:56;;;;;;;54.97;31.98;;;;;;;9.62;99.29;103140.56;5052180;28;20036;-50
2021/10/09 08:02:21;;;;;;;55.67;31.83;;;;;;;9.72;99.29;103136.06;5052647;28;20036;-59
2021/10/09 08:04:47;;;;;;;54.40;33.08;;;;;;;9.79;98.74;103141.34;5059044;28;20024;-52
2021/10/09 08:07:12;;;;;;;51.65;30.73;;;;;;;9.93;98.29;103133.34;5064701;28;20029;-58
2021/10/09 08:09:37;;;;;;;51.03;32.03;;;;;;;10.03;98.35;103139.47;5052474;28;20029;-52
2021/10/09 08:12:03;;;;;;;54.28;30.58;;;;;;;10.20;98.27;103141.13;5052461;28;20025;-53
2021/10/09 08:14:29;;;;;;;50.50;30.30;;;;;;;10.29;97.25;103136.66;5052168;28;20442;-51
2021/10/09 08:16:54;;;;;;;51.22;30.65;;;;;;;10.40;97.26;103136.63;5052424;28;20028;-53
2021/10/09 08:19:20;;;;;;;47.95;29.25;;;;;;;10.56;96.95;103140.03;5052238;28;20472;-59
2021/10/09 08:21:46;;;;;;;45.95;28.23;;;;;;;10.66;96.28;103140.81;5038885;28;20117;-61
2021/10/09 08:40:08;;;;;;;43.53;27.52;;;;;;;13.04;86.30;103136.84;5028257;28;20373;-54
2021/10/09 08:42:34;;;;;;;38.85;25.83;;;;;;;14.63;82.29;103137.88;5043721;28;20052;-52
2021/10/09 08:45:00;;;;;;;37.60;24.55;;;;;;;15.90;72.61;103138.00;5038711;28;20022;-51
2021/10/09 08:47:25;;;;;;;33.95;23.90;;;;;;;17.11;68.08;103139.38;5051828;28;20093;-52
2021/10/09 08:49:50;;;;;;;33.75;23.27;;;;;;;17.98;63.55;103134.38;5054910;28;20104;-50
2021/10/09 08:52:21;;;;;;;35.72;24.38;;;;;;;18.67;58.58;103136.03;5041837;28;20195;-54
2021/10/09 08:54:46;;;;;;;94.32;49.63;;;;;;;18.66;59.40;103140.53;5048545;28;20108;-59
2021/10/09 08:57:17;;;;;;;40.10;25.42;;;;;;;19.09;56.02;103131.56;5048072;28;20493;-62
2021/10/09 08:59:53;;;;;;;40.15;26.30;;;;;;;19.08;55.67;103138.75;5047614;28;20052;-54
2021/10/09 09:05:03;;;;;;;33.85;24.08;;;;;;;19.31;55.59;103143.09;5047724;28;20441;-57
2021/10/09 09:27:14;;;;;;;30.52;23.42;;;;;;;20.90;49.36;103139.09;5047085;28;20032;-57
2021/10/09 09:40:17;;;;;;;28.83;22.80;;;;;;;20.98;49.20;103133.31;5035012;28;20075;-48
2021/10/09 09:42:46;;;;;;;32.63;23.67;;;;;;;19.94;51.53;103131.25;5048103;28;20039;-52
2021/10/09 09:45:19;;;;;;;30.35;23.33;;;;;;;19.91;51.67;103125.13;5052057;28;20044;-55
2021/10/09 09:47:45;;;;;;;32.05;23.38;;;;;;;20.17;51.28;103125.69;5051127;28;20052;-52
2021/10/09 09:50:12;;;;;;;29.02;22.88;;;;;;;20.74;50.69;103126.44;5052315;28;20025;-56
2021/10/09 09:52:39;;;;;;;29.98;22.92;;;;;;;21.05;50.09;103121.22;5049957;28;20033;-55
2021/10/09 09:55:07;;;;;;;30.85;23.83;;;;;;;20.68;50.88;103125.81;5051195;28;20036;-54
2021/10/09 09:57:34;;;;;;;27.10;20.88;;;;;;;21.39;47.92;103120.28;5051630;28;20443;-50
2021/10/09 10:00:01;;;;;;;29.73;22.65;;;;;;;21.22;49.27;103129.28;5050771;28;20097;-54
2021/10/09 10:02:29;;;;;;;27.85;20.27;;;;;;;21.90;47.72;103130.09;5050131;28;20112;-55
2021/10/09 10:04:55;;;;;;;29.67;22.23;;;;;;;21.95;46.88;103124.47;5051065;28;20041;-49
2021/10/09 10:07:21;;;;;;;27.42;22.00;;;;;;;22.46;47.03;103119.72;5050633;28;20124;-55
2021/10/09 10:09:48;;;;;;;30.92;22.45;;;;;;;22.37;45.75;103113.03;5050500;28;20053;-53
2021/10/09 10:12:14;;;;;;;29.50;21.20;;;;;;;22.78;45.09;103118.75;5050788;28;20062;-51
2021/10/09 10:14:42;;;;;;;29.20;22.27;;;;;;;22.10;45.77;103120.88;5050833;28;20112;-53
2021/10/09 10:17:08;;;;;;;29.80;19.92;;;;;;;22.14;46.63;103118.88;5031038;28;20035;-55
2021/10/09 10:19:48;;;;;;;25.45;20.27;;;;;;;22.63;44.43;103116.00;5049951;28;20083;-52
2021/10/09 10:22:14;;;;;;;30.55;21.88;;;;;;;22.31;44.89;103121.44;5050968;28;20125;-56
2021/10/09 10:24:46;;;;;;;24.83;18.75;;;;;;;22.53;46.00;103122.91;5050427;28;20487;-50
2021/10/09 10:27:36;;;;;;;29.73;21.63;;;;;;;22.70;47.63;103127.31;5050959;28;20044;-54
2021/10/09 10:30:14;;;;;;;30.35;21.83;;;;;;;23.00;43.82;103115.59;5050814;28;20033;-51
2021/10/09 10:32:39;;;;;;;29.27;21.98;;;;;;;22.94;46.46;103114.09;5048945;28;20142;-53
2021/10/09 10:35:29;;;;;;;28.17;21.55;;;;;;;23.63;42.41;103117.06;5049183;28;20485;-53
2021/10/09 10:38:25;;;;;;;29.20;22.25;;;;;;;23.14;44.33;103114.72;5050073;28;20032;-52
2021/10/09 10:40:54;;;;;;;30.38;21.27;;;;;;;22.96;44.52;103112.19;5041945;28;20049;-52
2021/10/09 10:46:30;;;;;;;29.98;21.30;;;;;;;22.87;44.15;103119.03;5051547;28;20464;-50
2021/10/09 10:56:56;;;;;;;28.15;20.80;;;;;;;24.11;40.93;103119.34;5050435;28;20262;-53
2021/10/09 11:02:30;;;;;;;26.38;21.65;;;;;;;23.62;43.00;103109.91;5041106;28;20041;-52
2021/10/09 11:05:13;;;;;;;28.58;22.52;;;;;;;23.80;42.08;103115.94;5042963;28;20036;-47
2021/10/09 11:07:41;;;;;;;27.13;20.40;;;;;;;24.22;40.55;103118.63;5043970;28;20072;-51
2021/10/09 11:10:08;;;;;;;27.23;22.45;;;;;;;24.03;41.45;103121.72;5047583;28;20029;-52
2021/10/09 11:12:35;;;;;;;28.85;22.67;;;;;;;24.17;40.70;103121.66;5045466;28;20032;-45
2021/10/09 11:15:07;;;;;;;31.50;22.67;;;;;;;24.18;42.59;103115.28;5047773;28;20028;-52
2021/10/09 11:17:38;;;;;;;27.17;20.48;;;;;;;24.86;41.30;103112.53;5035953;28;20490;-54
2021/10/09 11:20:11;;;;;;;28.73;21.60;;;;;;;24.95;40.46;103120.00;5051618;28;20452;-46
2021/10/09 11:22:46;;;;;;;28.98;21.45;;;;;;;24.91;40.27;103114.91;5049503;28;20678;-52
2021/10/09 11:25:29;;;;;;;30.25;22.15;;;;;;;24.59;40.97;103110.72;5048878;28;20068;-56
2021/10/09 11:27:56;;;;;;;29.15;22.70;;;;;;;24.52;40.63;103112.13;5049363;28;20495;-50
2021/10/09 11:30:22;;;;;;;31.45;23.83;;;;;;;23.69;41.88;103115.78;5045876;28;20044;-56
2021/10/09 11:32:48;;;;;;;30.10;21.63;;;;;;;23.04;44.47;103115.31;5042473;28;20044;-54
2021/10/09 11:35:16;;;;;;;28.92;23.65;;;;;;;23.39;42.66;103108.69;5049399;28;20414;-49
2021/10/09 11:37:50;;;;;;;27.98;22.38;;;;;;;23.68;43.11;103103.22;5049214;28;20333;-50
2021/10/09 11:40:28;;;;;;;26.65;21.92;;;;;;;23.84;42.46;103108.50;5049676;28;20341;-51
2021/10/09 11:42:57;;;;;;;27.67;21.98;;;;;;;24.14;43.20;103102.03;5047827;28;20111;-58
2021/10/09 11:45:39;;;;;;;28.50;21.48;;;;;;;23.97;42.49;103105.88;5046241;28;20031;-53
2021/10/09 11:53:53;;;;;;;30.88;23.00;;;;;;;23.76;42.46;103092.78;5046587;28;20114;-54
2021/10/09 11:56:20;;;;;;;31.13;24.00;;;;;;;23.40;42.48;103092.34;5048442;28;20112;-51
2021/10/09 11:59:02;;;;;;;33.42;24.60;;;;;;;23.38;44.47;103094.28;5047466;28;20036;-54
2021/10/09 12:01:36;;;;;;;29.65;23.02;;;;;;;24.47;42.95;103096.16;5047494;28;20040;-54
2021/10/09 12:04:31;;;;;;;28.40;21.98;;;;;;;24.92;38.88;103101.22;5045433;28;20109;-52
2021/10/09 12:07:01;;;;;;;29.65;22.85;;;;;;;24.49;41.40;103099.66;5027601;28;20049;-53
2021/10/09 12:09:35;;;;;;;30.07;20.77;;;;;;;24.91;40.03;103101.34;5043371;28;20405;-52
2021/10/09 12:12:13;;;;;;;59.92;44.85;;;;;;;24.76;40.87;103097.84;5046614;28;20453;-54
2021/10/09 12:14:38;;;;;;;30.65;23.67;;;;;;;24.70;40.05;103091.03;5034743;28;20044;-57
2021/10/09 12:17:03;;;;;;;30.17;23.27;;;;;;;24.37;41.42;103101.38;5044519;28;20040;-49
2021/10/09 12:19:30;;;;;;;26.83;20.73;;;;;;;24.25;41.59;103095.94;5035255;28;20030;-51
2021/10/09 12:22:02;;;;;;;31.40;23.20;;;;;;;24.51;40.07;103091.41;5030995;28;20032;-51
2021/10/09 12:24:30;;;;;;;27.17;21.58;;;;;;;24.65;41.05;103087.78;5028444;28;20049;-56
2021/10/09 12:27:18;;;;;;;28.88;24.08;;;;;;;24.19;40.87;103092.63;5030894;28;20025;-49
2021/10/09 12:30:02;;;;;;;28.75;22.75;;;;;;;24.37;43.08;103082.41;5036876;28;20064;-50
2021/10/09 12:32:36;;;;;;;27.48;22.63;;;;;;;25.06;40.29;103081.28;5044744;28;20059;-52
2021/10/09 12:35:05;;;;;;;29.23;22.23;;;;;;;24.93;41.29;103078.59;5043765;28;20032;-51
2021/10/09 12:37:30;;;;;;;33.85;23.33;;;;;;;25.05;39.55;103075.97;5025366;28;20247;-52
2021/10/09 12:40:16;;;;;;;28.48;21.83;;;;;;;24.75;39.83;103078.03;5041255;28;20508;-52
2021/10/09 12:42:51;;;;;;;26.08;20.23;;;;;;;24.19;42.24;103072.81;5046214;28;20049;-55
2021/10/09 12:45:17;;;;;;;28.63;22.67;;;;;;;23.91;43.01;103071.13;5050402;28;20029;-56
2021/10/09 12:47:44;;;;;;;26.52;21.10;;;;;;;24.08;41.80;103064.56;5048013;28;20444;-49
2021/10/09 12:50:10;;;;;;;29.98;23.30;;;;;;;24.07;43.42;103068.22;5050560;28;20017;-54
2021/10/09 12:52:35;;;;;;;27.00;21.73;;;;;;;24.48;41.55;103062.69;5048701;28;20089;-53
2021/10/09 12:55:03;;;;;;;29.33;22.30;;;;;;;24.47;41.27;103062.81;5049775;28;20079;-52
2021/10/09 12:57:29;;;;;;;30.83;21.27;;;;;;;24.14;41.51;103056.03;5047996;28;20056;-52
2021/10/09 12:59:55;;;;;;;28.73;22.85;;;;;;;23.62;41.91;103058.50;5049303;28;20029;-49
2021/10/09 13:02:20;;;;;;;27.73;22.45;;;;;;;23.10;44.39;103056.44;5040745;28;20068;-52
2021/10/09 13:04:45;;;;;;;28.33;20.17;;;;;;;23.10;44.79;103056.44;5049600;28;20059;-53
2021/10/09 13:07:11;;;;;;;31.65;23.08;;;;;;;23.19;44.59;103056.72;5048483;28;20047;-60
2021/10/09 13:09:36;;;;;;;27.38;21.92;;;;;;;23.15;45.93;103057.06;5049360;28;20040;-52
2021/10/09 13:12:03;;;;;;;25.67;19.98;;;;;;;22.78;45.66;103062.03;5047341;28;20467;-52
2021/10/09 13:14:29;;;;;;;34.95;21.45;;;;;;;22.05;46.80;103056.38;5047018;28;20124;-47
2021/10/09 13:16:54;;;;;;;35.13;23.52;;;;;;;21.13;49.47;103054.34;5048333;28;20400;-44
2021/10/09 13:19:20;;;;;;;30.35;22.60;;;;;;;20.23;52.18;103053.63;5047102;28;20154;-52
2021/10/09 13:21:45;;;;;;;27.65;21.02;;;;;;;19.69;54.16;103045.50;5043264;28;20029;-55
2021/10/09 13:24:11;;;;;;;29.50;20.88;;;;;;;19.14;56.42;103048.97;5043803;28;20033;-48
2021/10/09 13:26:37;;;;;;;30.63;23.30;;;;;;;18.92;55.93;103047.28;5046927;28;20032;-52
2021/10/09 13:29:03;;;;;;;28.30;21.33;;;;;;;18.73;57.06;103049.88;5047597;28;20047;-52
2021/10/09 13:31:29;;;;;;;32.15;22.98;;;;;;;18.38;59.10;103048.75;5048400;28;20120;-50
2021/10/09 13:33:56;;;;;;;32.85;22.75;;;;;;;18.13;58.58;103045.28;5047458;28;20414;-49
2021/10/09 13:36:22;;;;;;;34.00;23.55;;;;;;;18.03;60.41;103038.56;5047330;28;20078;-53